sensor_id;sensor_type;location;lat;lon;timestamp;pressure;altitude;pressure_sealevel;temperature;humidity
27210;BME280;14721;42.668;23.386;2023-08-01T00:00:36;94889.53;;;21.39;69.15
27210;BME280;14721;42.668;23.386;2023-08-01T00:03:02;94909.63;;;21.59;69.18
27210;BME280;14721;42.668;23.386;2023-08-01T00:05:27;94896.06;;;21.44;69.27
27210;BME280;14721;42.668;23.386;2023-08-01T00:07:55;94930.94;;;21.55;69.58
27210;BME280;14721;42.668;23.386;2023-08-01T00:10:20;94908.63;;;21.45;69.50
27210;BME280;14721;42.668;23.386;2023-08-01T00:12:45;94926.25;;;21.49;69.56
27210;BME280;14721;42.668;23.386;2023-08-01T00:15:11;94865.94;;;21.10;69.49
27210;BME280;14721;42.668;23.386;2023-08-01T00:17:38;94916.78;;;21.45;69.94
27210;BME280;14721;42.668;23.386;2023-08-01T00:20:04;94906.78;;;21.31;69.84
27210;BME280;14721;42.668;23.386;2023-08-01T00:22:29;94945.00;;;21.44;70.07
27210;BME280;14721;42.668;23.386;2023-08-01T00:24:55;94932.25;;;21.30;70.45
27210;BME280;14721;42.668;23.386;2023-08-01T00:27:20;94927.19;;;21.27;70.92
27210;BME280;14721;42.668;23.386;2023-08-01T00:29:46;94929.47;;;21.24;70.61
27210;BME280;14721;42.668;23.386;2023-08-01T00:32:11;94927.00;;;21.29;70.76
27210;BME280;14721;42.668;23.386;2023-08-01T00:34:37;94928.59;;;21.23;70.92
27210;BME280;14721;42.668;23.386;2023-08-01T00:37:04;94934.91;;;21.24;71.17
27210;BME280;14721;42.668;23.386;2023-08-01T00:39:30;94928.22;;;21.26;70.97
27210;BME280;14721;42.668;23.386;2023-08-01T00:41:55;94926.38;;;21.27;71.07
27210;BME280;14721;42.668;23.386;2023-08-01T00:44:21;94906.41;;;21.05;71.98
27210;BME280;14721;42.668;23.386;2023-08-01T00:46:47;94937.59;;;21.09;73.74
27210;BME280;14721;42.668;23.386;2023-08-01T00:49:14;94928.28;;;20.89;75.79
27210;BME280;14721;42.668;23.386;2023-08-01T00:51:40;94916.06;;;20.71;76.99
27210;BME280;14721;42.668;23.386;2023-08-01T00:54:06;94871.56;;;20.42;78.30
27210;BME280;14721;42.668;23.386;2023-08-01T00:56:35;94893.47;;;20.41;79.89
27210;BME280;14721;42.668;23.386;2023-08-01T00:59:01;94922.88;;;20.52;80.83
27210;BME280;14721;42.668;23.386;2023-08-01T01:01:27;94929.03;;;20.46;81.52
27210;BME280;14721;42.668;23.386;2023-08-01T01:03:53;94906.00;;;20.19;82.58
27210;BME280;14721;42.668;23.386;2023-08-01T01:08:44;94909.59;;;20.20;83.60
27210;BME280;14721;42.668;23.386;2023-08-01T01:11:10;94923.28;;;20.26;83.98
27210;BME280;14721;42.668;23.386;2023-08-01T01:13:36;94908.63;;;20.13;84.51
27210;BME280;14721;42.668;23.386;2023-08-01T01:16:01;94892.06;;;20.00;85.25
27210;BME280;14721;42.668;23.386;2023-08-01T01:18:27;94892.50;;;20.11;84.78
27210;BME280;14721;42.668;23.386;2023-08-01T01:20:52;94903.53;;;20.10;84.56
27210;BME280;14721;42.668;23.386;2023-08-01T01:23:19;94876.97;;;19.83;85.89
27210;BME280;14721;42.668;23.386;2023-08-01T01:25:47;94874.06;;;19.84;86.33
27210;BME280;14721;42.668;23.386;2023-08-01T01:28:15;94907.97;;;20.03;86.29
27210;BME280;14721;42.668;23.386;2023-08-01T01:30:41;94875.78;;;20.00;85.65
27210;BME280;14721;42.668;23.386;2023-08-01T01:33:07;94861.47;;;19.91;85.28
27210;BME280;14721;42.668;23.386;2023-08-01T01:35:34;94869.72;;;19.98;84.99
27210;BME280;14721;42.668;23.386;2023-08-01T01:38:00;94871.59;;;19.97;84.94
27210;BME280;14721;42.668;23.386;2023-08-01T01:40:32;94886.22;;;20.11;84.84
27210;BME280;14721;42.668;23.386;2023-08-01T01:42:59;94890.03;;;20.02;84.98
27210;BME280;14721;42.668;23.386;2023-08-01T01:45:25;94905.75;;;20.14;85.40
27210;BME280;14721;42.668;23.386;2023-08-01T01:47:50;94874.78;;;20.01;85.18
27210;BME280;14721;42.668;23.386;2023-08-01T01:50:16;94873.63;;;19.95;85.80
27210;BME280;14721;42.668;23.386;2023-08-01T01:52:41;94880.25;;;19.93;85.71
27210;BME280;14721;42.668;23.386;2023-08-01T01:55:07;94902.00;;;20.07;85.08
27210;BME280;14721;42.668;23.386;2023-08-01T01:57:32;94904.91;;;20.06;84.97
27210;BME280;14721;42.668;23.386;2023-08-01T01:59:58;94899.84;;;20.03;84.72
27210;BME280;14721;42.668;23.386;2023-08-01T02:02:23;94901.97;;;19.93;84.45
27210;BME280;14721;42.668;23.386;2023-08-01T02:04:50;94896.72;;;19.91;83.98
27210;BME280;14721;42.668;23.386;2023-08-01T02:07:15;94906.88;;;19.89;83.91
27210;BME280;14721;42.668;23.386;2023-08-01T02:09:43;94891.59;;;19.74;84.26
27210;BME280;14721;42.668;23.386;2023-08-01T02:12:09;94882.19;;;19.62;84.82
27210;BME280;14721;42.668;23.386;2023-08-01T02:14:35;94888.06;;;19.65;84.58
27210;BME280;14721;42.668;23.386;2023-08-01T02:17:01;94909.88;;;19.72;84.64
27210;BME280;14721;42.668;23.386;2023-08-01T02:19:27;94878.53;;;19.47;85.27
27210;BME280;14721;42.668;23.386;2023-08-01T02:21:53;94899.63;;;19.59;84.72
27210;BME280;14721;42.668;23.386;2023-08-01T02:24:20;94886.19;;;19.43;84.64
27210;BME280;14721;42.668;23.386;2023-08-01T02:26:45;94857.34;;;19.12;85.44
27210;BME280;14721;42.668;23.386;2023-08-01T02:29:11;94889.44;;;19.31;86.07
27210;BME280;14721;42.668;23.386;2023-08-01T02:31:36;94865.47;;;19.12;86.40
27210;BME280;14721;42.668;23.386;2023-08-01T02:34:01;94893.88;;;19.24;86.82
27210;BME280;14721;42.668;23.386;2023-08-01T02:36:27;94874.31;;;19.06;87.10
27210;BME280;14721;42.668;23.386;2023-08-01T02:38:52;94899.47;;;19.14;87.30
27210;BME280;14721;42.668;23.386;2023-08-01T02:41:18;94884.28;;;19.05;87.72
27210;BME280;14721;42.668;23.386;2023-08-01T02:43:43;94901.34;;;19.14;87.50
27210;BME280;14721;42.668;23.386;2023-08-01T02:46:09;94884.97;;;19.07;87.60
27210;BME280;14721;42.668;23.386;2023-08-01T02:48:35;94897.28;;;19.10;88.08
27210;BME280;14721;42.668;23.386;2023-08-01T02:51:01;94908.13;;;19.10;88.49
27210;BME280;14721;42.668;23.386;2023-08-01T02:53:27;94886.34;;;18.95;89.00
27210;BME280;14721;42.668;23.386;2023-08-01T02:55:52;94903.41;;;19.04;89.00
27210;BME280;14721;42.668;23.386;2023-08-01T02:58:18;94914.91;;;19.14;88.79
27210;BME280;14721;42.668;23.386;2023-08-01T03:00:46;94900.69;;;19.12;88.63
27210;BME280;14721;42.668;23.386;2023-08-01T03:03:12;94884.34;;;18.97;88.40
27210;BME280;14721;42.668;23.386;2023-08-01T03:05:38;94902.25;;;19.06;88.39
27210;BME280;14721;42.668;23.386;2023-08-01T03:08:04;94909.34;;;18.99;89.01
27210;BME280;14721;42.668;23.386;2023-08-01T03:10:30;94906.00;;;18.89;89.86
27210;BME280;14721;42.668;23.386;2023-08-01T03:12:55;94897.44;;;18.61;90.96
27210;BME280;14721;42.668;23.386;2023-08-01T03:15:21;94897.78;;;18.66;91.23
27210;BME280;14721;42.668;23.386;2023-08-01T03:17:46;94892.03;;;18.61;91.76
27210;BME280;14721;42.668;23.386;2023-08-01T03:20:12;94892.38;;;18.58;92.04
27210;BME280;14721;42.668;23.386;2023-08-01T03:22:38;94883.44;;;18.58;92.22
27210;BME280;14721;42.668;23.386;2023-08-01T03:25:06;94888.16;;;18.64;91.51
27210;BME280;14721;42.668;23.386;2023-08-01T03:27:34;94900.66;;;18.73;91.13
27210;BME280;14721;42.668;23.386;2023-08-01T03:30:00;94895.41;;;18.72;90.80
27210;BME280;14721;42.668;23.386;2023-08-01T03:32:25;94924.84;;;18.75;90.99
27210;BME280;14721;42.668;23.386;2023-08-01T03:34:51;94920.56;;;18.80;91.35
27210;BME280;14721;42.668;23.386;2023-08-01T03:37:16;94914.84;;;19.22;90.48
27210;BME280;14721;42.668;23.386;2023-08-01T03:39:42;94923.00;;;19.60;87.77
27210;BME280;14721;42.668;23.386;2023-08-01T03:42:07;94916.34;;;19.71;86.04
27210;BME280;14721;42.668;23.386;2023-08-01T03:44:33;94918.34;;;19.77;84.26
27210;BME280;14721;42.668;23.386;2023-08-01T03:46:59;94917.63;;;19.83;84.12
27210;BME280;14721;42.668;23.386;2023-08-01T03:49:26;94927.66;;;20.27;82.96
27210;BME280;14721;42.668;23.386;2023-08-01T03:51:51;94930.81;;;20.91;79.63
27210;BME280;14721;42.668;23.386;2023-08-01T03:54:17;94940.22;;;21.46;76.79
27210;BME280;14721;42.668;23.386;2023-08-01T03:56:46;94925.03;;;21.81;74.35
27210;BME280;14721;42.668;23.386;2023-08-01T03:59:13;94936.19;;;22.64;70.36
27210;BME280;14721;42.668;23.386;2023-08-01T04:01:38;94907.22;;;23.18;67.46
27210;BME280;14721;42.668;23.386;2023-08-01T04:04:04;94930.34;;;23.56;65.64
27210;BME280;14721;42.668;23.386;2023-08-01T04:06:31;94933.78;;;24.18;63.45
27210;BME280;14721;42.668;23.386;2023-08-01T04:08:56;94934.97;;;24.95;59.96
27210;BME280;14721;42.668;23.386;2023-08-01T04:11:22;94923.59;;;25.44;57.62
27210;BME280;14721;42.668;23.386;2023-08-01T04:13:48;94933.97;;;25.99;55.83
27210;BME280;14721;42.668;23.386;2023-08-01T04:16:13;94930.38;;;26.80;53.02
27210;BME280;14721;42.668;23.386;2023-08-01T04:18:39;94916.34;;;27.19;50.98
27210;BME280;14721;42.668;23.386;2023-08-01T04:21:04;94899.56;;;27.52;49.96
27210;BME280;14721;42.668;23.386;2023-08-01T04:23:29;94934.91;;;27.67;49.42
27210;BME280;14721;42.668;23.386;2023-08-01T04:25:55;94935.78;;;28.03;48.26
27210;BME280;14721;42.668;23.386;2023-08-01T04:28:20;94909.56;;;28.37;47.43
27210;BME280;14721;42.668;23.386;2023-08-01T04:30:52;94926.63;;;28.57;46.17
27210;BME280;14721;42.668;23.386;2023-08-01T04:33:18;94934.28;;;28.55;46.26
27210;BME280;14721;42.668;23.386;2023-08-01T04:35:43;94931.28;;;28.86;44.99
27210;BME280;14721;42.668;23.386;2023-08-01T04:40:53;94901.66;;;28.58;44.41
27210;BME280;14721;42.668;23.386;2023-08-01T04:43:21;94873.44;;;28.92;43.98
27210;BME280;14721;42.668;23.386;2023-08-01T04:45:47;94934.38;;;29.31;43.15
27210;BME280;14721;42.668;23.386;2023-08-01T04:48:12;94940.03;;;29.47;42.94
27210;BME280;14721;42.668;23.386;2023-08-01T04:50:38;94928.78;;;29.26;43.36
27210;BME280;14721;42.668;23.386;2023-08-01T04:53:03;94904.81;;;29.14;42.95
27210;BME280;14721;42.668;23.386;2023-08-01T04:55:29;94926.63;;;29.39;43.06
27210;BME280;14721;42.668;23.386;2023-08-01T04:57:54;94933.69;;;29.58;42.83
27210;BME280;14721;42.668;23.386;2023-08-01T05:00:20;94921.97;;;29.51;42.44
27210;BME280;14721;42.668;23.386;2023-08-01T05:02:45;94933.06;;;30.25;41.46
27210;BME280;14721;42.668;23.386;2023-08-01T05:05:11;94923.25;;;30.06;41.38
27210;BME280;14721;42.668;23.386;2023-08-01T05:07:36;94926.63;;;29.97;41.16
27210;BME280;14721;42.668;23.386;2023-08-01T05:10:02;94936.31;;;29.53;41.94
27210;BME280;14721;42.668;23.386;2023-08-01T05:12:27;94940.16;;;29.98;40.88
27210;BME280;14721;42.668;23.386;2023-08-01T05:14:52;94918.69;;;30.12;40.51
27210;BME280;14721;42.668;23.386;2023-08-01T05:17:18;94924.47;;;29.99;40.60
27210;BME280;14721;42.668;23.386;2023-08-01T05:19:43;94936.66;;;30.65;39.72
27210;BME280;14721;42.668;23.386;2023-08-01T05:22:09;94900.16;;;29.96;39.77
27210;BME280;14721;42.668;23.386;2023-08-01T05:27:19;94887.50;;;30.34;39.16
27210;BME280;14721;42.668;23.386;2023-08-01T05:29:44;94915.47;;;30.54;39.36
27210;BME280;14721;42.668;23.386;2023-08-01T05:32:09;94931.31;;;30.87;38.86
27210;BME280;14721;42.668;23.386;2023-08-01T05:34:35;94925.63;;;30.93;37.96
27210;BME280;14721;42.668;23.386;2023-08-01T05:37:00;94915.38;;;31.06;38.01
27210;BME280;14721;42.668;23.386;2023-08-01T05:39:26;94921.69;;;31.34;37.64
27210;BME280;14721;42.668;23.386;2023-08-01T05:41:51;94919.44;;;31.48;37.44
27210;BME280;14721;42.668;23.386;2023-08-01T05:44:17;94929.25;;;31.27;37.50
27210;BME280;14721;42.668;23.386;2023-08-01T05:46:42;94921.19;;;31.70;36.68
27210;BME280;14721;42.668;23.386;2023-08-01T05:49:10;94931.69;;;32.28;36.17
27210;BME280;14721;42.668;23.386;2023-08-01T05:51:36;94933.19;;;32.14;36.12
27210;BME280;14721;42.668;23.386;2023-08-01T05:54:01;94921.50;;;31.41;37.40
27210;BME280;14721;42.668;23.386;2023-08-01T05:56:27;94923.94;;;31.87;36.61
27210;BME280;14721;42.668;23.386;2023-08-01T05:58:52;94914.13;;;31.79;36.62
27210;BME280;14721;42.668;23.386;2023-08-01T06:01:17;94921.00;;;31.44;36.44
27210;BME280;14721;42.668;23.386;2023-08-01T06:03:45;94921.44;;;31.52;36.87
27210;BME280;14721;42.668;23.386;2023-08-01T06:06:10;94923.97;;;32.08;35.66
27210;BME280;14721;42.668;23.386;2023-08-01T06:08:36;94912.06;;;32.29;35.29
27210;BME280;14721;42.668;23.386;2023-08-01T06:11:01;94925.31;;;32.06;35.39
27210;BME280;14721;42.668;23.386;2023-08-01T06:13:27;94920.03;;;32.42;35.04
27210;BME280;14721;42.668;23.386;2023-08-01T06:15:52;94915.75;;;32.56;35.05
27210;BME280;14721;42.668;23.386;2023-08-01T06:18:17;94911.34;;;33.04;34.11
27210;BME280;14721;42.668;23.386;2023-08-01T06:26:35;94914.50;;;32.42;35.21
27210;BME280;14721;42.668;23.386;2023-08-01T06:29:03;94916.69;;;32.02;35.52
27210;BME280;14721;42.668;23.386;2023-08-01T06:31:29;94907.97;;;32.32;35.81
27210;BME280;14721;42.668;23.386;2023-08-01T06:33:54;94867.09;;;32.12;35.31
27210;BME280;14721;42.668;23.386;2023-08-01T06:36:20;94925.38;;;32.32;35.14
27210;BME280;14721;42.668;23.386;2023-08-01T06:38:45;94890.53;;;32.31;35.02
27210;BME280;14721;42.668;23.386;2023-08-01T06:41:11;94900.81;;;32.79;34.72
27210;BME280;14721;42.668;23.386;2023-08-01T06:43:36;94901.50;;;32.86;34.23
27210;BME280;14721;42.668;23.386;2023-08-01T06:46:04;94896.38;;;32.78;33.41
27210;BME280;14721;42.668;23.386;2023-08-01T06:48:29;94907.63;;;32.72;34.24
27210;BME280;14721;42.668;23.386;2023-08-01T06:50:55;94883.13;;;32.80;33.19
27210;BME280;14721;42.668;23.386;2023-08-01T06:53:23;94874.78;;;33.02;33.38
27210;BME280;14721;42.668;23.386;2023-08-01T06:55:48;94880.91;;;33.35;32.85
27210;BME280;14721;42.668;23.386;2023-08-01T06:58:14;94883.38;;;32.79;33.31
27210;BME280;14721;42.668;23.386;2023-08-01T07:00:39;94899.41;;;33.30;33.92
27210;BME280;14721;42.668;23.386;2023-08-01T07:03:04;94900.44;;;33.50;32.65
27210;BME280;14721;42.668;23.386;2023-08-01T07:05:30;94897.16;;;33.53;32.33
27210;BME280;14721;42.668;23.386;2023-08-01T07:07:56;94905.03;;;33.71;32.24
27210;BME280;14721;42.668;23.386;2023-08-01T07:10:23;94899.72;;;34.01;32.07
27210;BME280;14721;42.668;23.386;2023-08-01T07:12:48;94879.25;;;33.71;32.51
27210;BME280;14721;42.668;23.386;2023-08-01T07:15:14;94876.97;;;33.58;33.01
27210;BME280;14721;42.668;23.386;2023-08-01T07:17:39;94885.88;;;34.06;31.13
27210;BME280;14721;42.668;23.386;2023-08-01T07:20:05;94896.50;;;33.41;32.54
27210;BME280;14721;42.668;23.386;2023-08-01T07:22:30;94872.84;;;33.65;31.71
27210;BME280;14721;42.668;23.386;2023-08-01T07:24:56;94874.28;;;33.73;31.60
27210;BME280;14721;42.668;23.386;2023-08-01T07:27:21;94884.97;;;33.91;31.50
27210;BME280;14721;42.668;23.386;2023-08-01T07:29:47;94886.72;;;33.65;31.16
27210;BME280;14721;42.668;23.386;2023-08-01T07:32:12;94887.88;;;33.74;31.19
27210;BME280;14721;42.668;23.386;2023-08-01T07:34:38;94883.19;;;33.43;31.51
27210;BME280;14721;42.668;23.386;2023-08-01T07:37:03;94881.97;;;34.02;31.94
27210;BME280;14721;42.668;23.386;2023-08-01T07:39:29;94848.25;;;34.20;30.02
27210;BME280;14721;42.668;23.386;2023-08-01T07:41:55;94870.44;;;34.20;30.23
27210;BME280;14721;42.668;23.386;2023-08-01T07:44:21;94869.75;;;34.45;30.47
27210;BME280;14721;42.668;23.386;2023-08-01T07:46:46;94868.94;;;34.60;30.01
27210;BME280;14721;42.668;23.386;2023-08-01T07:49:13;94866.16;;;34.55;30.15
27210;BME280;14721;42.668;23.386;2023-08-01T07:51:38;94882.75;;;34.40;31.14
27210;BME280;14721;42.668;23.386;2023-08-01T07:54:04;94867.91;;;34.81;30.04
27210;BME280;14721;42.668;23.386;2023-08-01T07:56:29;94871.84;;;34.90;29.45
27210;BME280;14721;42.668;23.386;2023-08-01T07:58:55;94873.22;;;34.87;30.06
27210;BME280;14721;42.668;23.386;2023-08-01T08:01:20;94871.28;;;34.88;29.60
27210;BME280;14721;42.668;23.386;2023-08-01T08:03:46;94870.72;;;34.91;30.28
27210;BME280;14721;42.668;23.386;2023-08-01T08:06:11;94842.16;;;35.00;28.50
27210;BME280;14721;42.668;23.386;2023-08-01T08:08:37;94861.03;;;34.93;29.31
27210;BME280;14721;42.668;23.386;2023-08-01T08:11:03;94859.38;;;34.97;29.28
27210;BME280;14721;42.668;23.386;2023-08-01T08:13:29;94856.06;;;35.20;29.19
27210;BME280;14721;42.668;23.386;2023-08-01T08:15:57;94862.78;;;35.44;28.75
27210;BME280;14721;42.668;23.386;2023-08-01T08:18:23;94857.47;;;35.53;28.43
27210;BME280;14721;42.668;23.386;2023-08-01T08:20:49;94851.91;;;35.48;27.91
27210;BME280;14721;42.668;23.386;2023-08-01T08:23:15;94836.88;;;35.29;28.34
27210;BME280;14721;42.668;23.386;2023-08-01T08:25:41;94841.81;;;34.82;28.67
27210;BME280;14721;42.668;23.386;2023-08-01T08:28:07;94834.09;;;34.94;29.27
27210;BME280;14721;42.668;23.386;2023-08-01T08:30:33;94839.91;;;34.92;28.37
27210;BME280;14721;42.668;23.386;2023-08-01T08:32:58;94822.16;;;34.88;29.33
27210;BME280;14721;42.668;23.386;2023-08-01T08:35:29;94838.28;;;35.06;28.88
27210;BME280;14721;42.668;23.386;2023-08-01T08:37:55;94833.81;;;35.25;29.06
27210;BME280;14721;42.668;23.386;2023-08-01T08:40:20;94824.38;;;34.91;29.44
27210;BME280;14721;42.668;23.386;2023-08-01T08:42:46;94820.22;;;34.89;30.00
27210;BME280;14721;42.668;23.386;2023-08-01T08:45:15;94806.06;;;35.05;29.49
27210;BME280;14721;42.668;23.386;2023-08-01T08:47:44;94809.38;;;35.27;28.61
27210;BME280;14721;42.668;23.386;2023-08-01T08:50:14;94785.50;;;35.06;29.17
27210;BME280;14721;42.668;23.386;2023-08-01T08:52:40;94803.84;;;34.97;28.71
27210;BME280;14721;42.668;23.386;2023-08-01T08:55:06;94791.91;;;34.92;28.42
27210;BME280;14721;42.668;23.386;2023-08-01T08:57:33;94802.66;;;34.63;29.37
27210;BME280;14721;42.668;23.386;2023-08-01T09:00:00;94803.22;;;34.70;29.75
27210;BME280;14721;42.668;23.386;2023-08-01T09:02:29;94791.34;;;34.95;28.25
27210;BME280;14721;42.668;23.386;2023-08-01T09:04:57;94784.94;;;35.09;28.77
27210;BME280;14721;42.668;23.386;2023-08-01T09:07:24;94792.72;;;34.87;28.87
27210;BME280;14721;42.668;23.386;2023-08-01T09:09:52;94788.53;;;34.80;29.46
27210;BME280;14721;42.668;23.386;2023-08-01T09:12:18;94771.91;;;35.10;28.89
27210;BME280;14721;42.668;23.386;2023-08-01T09:14:45;94757.47;;;35.43;28.87
27210;BME280;14721;42.668;23.386;2023-08-01T09:17:10;94770.50;;;35.42;28.27
27210;BME280;14721;42.668;23.386;2023-08-01T09:19:36;94786.59;;;35.55;28.05
27210;BME280;14721;42.668;23.386;2023-08-01T09:22:02;94779.06;;;34.76;28.55
27210;BME280;14721;42.668;23.386;2023-08-01T09:24:34;94783.50;;;34.72;29.52
27210;BME280;14721;42.668;23.386;2023-08-01T09:27:04;94779.28;;;34.44;29.22
27210;BME280;14721;42.668;23.386;2023-08-01T09:29:31;94778.88;;;34.15;29.24
27210;BME280;14721;42.668;23.386;2023-08-01T09:31:59;94769.19;;;33.61;29.93
27210;BME280;14721;42.668;23.386;2023-08-01T09:34:26;94781.06;;;33.57;30.71
27210;BME280;14721;42.668;23.386;2023-08-01T09:36:58;94781.50;;;33.39;30.76
27210;BME280;14721;42.668;23.386;2023-08-01T09:39:24;94772.47;;;33.17;31.49
27210;BME280;14721;42.668;23.386;2023-08-01T09:42:01;94774.59;;;33.00;31.63
27210;BME280;14721;42.668;23.386;2023-08-01T09:44:28;94742.94;;;32.59;31.59
27210;BME280;14721;42.668;23.386;2023-08-01T09:47:01;94774.41;;;32.53;31.86
27210;BME280;14721;42.668;23.386;2023-08-01T09:49:28;94729.88;;;31.58;32.58
27210;BME280;14721;42.668;23.386;2023-08-01T09:51:54;94726.09;;;31.26;33.48
27210;BME280;14721;42.668;23.386;2023-08-01T09:54:20;94756.25;;;31.49;34.47
27210;BME280;14721;42.668;23.386;2023-08-01T09:56:51;94755.41;;;31.87;33.51
27210;BME280;14721;42.668;23.386;2023-08-01T09:59:26;94737.13;;;31.86;33.35
27210;BME280;14721;42.668;23.386;2023-08-01T10:01:53;94733.44;;;31.80;33.53
27210;BME280;14721;42.668;23.386;2023-08-01T10:04:30;94718.22;;;31.35;33.90
27210;BME280;14721;42.668;23.386;2023-08-01T10:07:09;94735.34;;;30.82;35.21
27210;BME280;14721;42.668;23.386;2023-08-01T10:09:37;94735.19;;;30.88;35.92
27210;BME280;14721;42.668;23.386;2023-08-01T10:12:04;94708.03;;;30.47;35.72
27210;BME280;14721;42.668;23.386;2023-08-01T10:14:32;94698.66;;;30.65;35.19
27210;BME280;14721;42.668;23.386;2023-08-01T10:16:57;94720.88;;;30.58;35.73
27210;BME280;14721;42.668;23.386;2023-08-01T10:19:24;94704.41;;;30.47;36.21
27210;BME280;14721;42.668;23.386;2023-08-01T10:21:50;94710.28;;;30.67;36.01
27210;BME280;14721;42.668;23.386;2023-08-01T10:24:20;94696.75;;;30.49;35.59
27210;BME280;14721;42.668;23.386;2023-08-01T10:26:46;94686.78;;;30.31;35.92
27210;BME280;14721;42.668;23.386;2023-08-01T10:29:12;94706.75;;;30.38;36.38
27210;BME280;14721;42.668;23.386;2023-08-01T10:31:53;94677.84;;;29.80;36.34
27210;BME280;14721;42.668;23.386;2023-08-01T10:34:19;94646.03;;;29.33;37.11
27210;BME280;14721;42.668;23.386;2023-08-01T10:36:56;94705.78;;;29.49;37.88
27210;BME280;14721;42.668;23.386;2023-08-01T10:39:24;94693.91;;;29.60;37.75
27210;BME280;14721;42.668;23.386;2023-08-01T10:44:24;94685.97;;;30.03;37.39
27210;BME280;14721;42.668;23.386;2023-08-01T10:46:58;94651.63;;;29.94;37.24
27210;BME280;14721;42.668;23.386;2023-08-01T10:52:00;94678.84;;;30.35;36.55
27210;BME280;14721;42.668;23.386;2023-08-01T10:54:27;94667.94;;;30.12;36.57
27210;BME280;14721;42.668;23.386;2023-08-01T10:56:54;94673.38;;;29.79;37.52
27210;BME280;14721;42.668;23.386;2023-08-01T10:59:21;94667.84;;;29.62;37.68
27210;BME280;14721;42.668;23.386;2023-08-01T11:01:59;94649.19;;;29.53;37.44
27210;BME280;14721;42.668;23.386;2023-08-01T11:04:25;94664.91;;;29.41;37.91
27210;BME280;14721;42.668;23.386;2023-08-01T11:06:53;94664.63;;;29.54;38.01
27210;BME280;14721;42.668;23.386;2023-08-01T11:09:22;94664.25;;;29.50;37.71
27210;BME280;14721;42.668;23.386;2023-08-01T11:11:51;94660.03;;;29.31;37.89
27210;BME280;14721;42.668;23.386;2023-08-01T11:14:19;94644.56;;;29.42;37.57
27210;BME280;14721;42.668;23.386;2023-08-01T11:16:45;94647.25;;;29.65;37.54
27210;BME280;14721;42.668;23.386;2023-08-01T11:19:26;94650.88;;;29.82;37.39
27210;BME280;14721;42.668;23.386;2023-08-01T11:21:52;94628.25;;;29.80;36.46
27210;BME280;14721;42.668;23.386;2023-08-01T11:24:19;94637.19;;;29.87;36.67
27210;BME280;14721;42.668;23.386;2023-08-01T11:26:46;94631.03;;;29.96;36.46
27210;BME280;14721;42.668;23.386;2023-08-01T11:29:13;94630.69;;;29.93;35.93
27210;BME280;14721;42.668;23.386;2023-08-01T11:31:39;94636.81;;;29.95;35.98
27210;BME280;14721;42.668;23.386;2023-08-01T11:34:07;94580.94;;;29.83;35.60
27210;BME280;14721;42.668;23.386;2023-08-01T11:36:37;94609.31;;;30.16;35.74
27210;BME280;14721;42.668;23.386;2023-08-01T11:39:04;94624.31;;;30.20;35.91
27210;BME280;14721;42.668;23.386;2023-08-01T11:41:57;94582.53;;;29.95;36.05
27210;BME280;14721;42.668;23.386;2023-08-01T11:44:46;94585.25;;;29.79;35.77
27210;BME280;14721;42.668;23.386;2023-08-01T11:47:23;94596.22;;;29.74;35.98
27210;BME280;14721;42.668;23.386;2023-08-01T11:49:49;94595.22;;;29.80;36.07
27210;BME280;14721;42.668;23.386;2023-08-01T11:52:46;94600.50;;;30.14;36.39
27210;BME280;14721;42.668;23.386;2023-08-01T11:55:21;94540.63;;;29.93;35.25
27210;BME280;14721;42.668;23.386;2023-08-01T11:58:00;94589.63;;;30.41;35.04
27210;BME280;14721;42.668;23.386;2023-08-01T12:00:31;94567.19;;;30.32;34.20
27210;BME280;14721;42.668;23.386;2023-08-01T12:03:10;94600.41;;;30.42;35.17
27210;BME280;14721;42.668;23.386;2023-08-01T12:05:39;94564.91;;;30.46;35.27
27210;BME280;14721;42.668;23.386;2023-08-01T12:08:14;94576.41;;;30.59;34.39
27210;BME280;14721;42.668;23.386;2023-08-01T12:10:44;94569.53;;;30.62;34.60
27210;BME280;14721;42.668;23.386;2023-08-01T12:13:23;94574.38;;;30.71;34.25
27210;BME280;14721;42.668;23.386;2023-08-01T12:15:50;94560.56;;;30.50;33.49
27210;BME280;14721;42.668;23.386;2023-08-01T12:18:27;94572.81;;;30.59;34.65
27210;BME280;14721;42.668;23.386;2023-08-01T12:20:53;94543.38;;;30.43;35.27
27210;BME280;14721;42.668;23.386;2023-08-01T12:23:22;94566.19;;;30.38;35.20
27210;BME280;14721;42.668;23.386;2023-08-01T12:26:01;94552.91;;;30.02;35.64
27210;BME280;14721;42.668;23.386;2023-08-01T12:28:34;94572.00;;;29.92;36.41
27210;BME280;14721;42.668;23.386;2023-08-01T12:30:59;94560.72;;;29.77;36.30
27210;BME280;14721;42.668;23.386;2023-08-01T12:37:15;94499.53;;;29.42;37.10
27210;BME280;14721;42.668;23.386;2023-08-01T12:45:47;94558.06;;;29.66;36.03
27210;BME280;14721;42.668;23.386;2023-08-01T12:51:15;94553.91;;;29.96;35.75
27210;BME280;14721;42.668;23.386;2023-08-01T12:53:40;94523.38;;;29.81;35.31
27210;BME280;14721;42.668;23.386;2023-08-01T12:56:06;94532.38;;;29.93;34.92
27210;BME280;14721;42.668;23.386;2023-08-01T12:58:32;94520.50;;;30.09;34.60
27210;BME280;14721;42.668;23.386;2023-08-01T13:00:58;94518.66;;;30.31;34.37
27210;BME280;14721;42.668;23.386;2023-08-01T13:03:25;94477.59;;;29.97;33.75
27210;BME280;14721;42.668;23.386;2023-08-01T13:05:51;94517.16;;;30.24;33.75
27210;BME280;14721;42.668;23.386;2023-08-01T13:08:18;94516.41;;;30.28;33.96
27210;BME280;14721;42.668;23.386;2023-08-01T13:10:43;94501.97;;;30.21;33.73
27210;BME280;14721;42.668;23.386;2023-08-01T13:13:11;94501.59;;;30.18;33.32
27210;BME280;14721;42.668;23.386;2023-08-01T13:15:36;94506.81;;;30.31;33.09
27210;BME280;14721;42.668;23.386;2023-08-01T13:18:02;94496.56;;;30.48;32.88
27210;BME280;14721;42.668;23.386;2023-08-01T13:20:27;94483.72;;;30.58;32.98